sensor_id;sensor_type;location;lat;lon;timestamp;P1;P2;P0
44350;PMS5003;62766;62.622;17.912;2022-08-19T00:02:00;3;3;
44350;PMS5003;62766;62.622;17.912;2022-08-19T00:04:29;6;5;
44350;PMS5003;62766;62.622;17.912;2022-08-19T00:06:59;4;4;
44350;PMS5003;62766;62.622;17.912;2022-08-19T00:09:28;4;4;
44350;PMS5003;62766;62.622;17.912;2022-08-19T00:11:57;3;3;
44350;PMS5003;62766;62.622;17.912;2022-08-19T00:14:28;3;3;
44350;PMS5003;62766;62.622;17.912;2022-08-19T00:16:57;5;5;
44350;PMS5003;62766;62.622;17.912;2022-08-19T00:19:26;3;3;
44350;PMS5003;62766;62.622;17.912;2022-08-19T00:21:54;5;5;
44350;PMS5003;62766;62.622;17.912;2022-08-19T00:24:22;3;3;
44350;PMS5003;62766;62.622;17.912;2022-08-19T00:26:50;4;4;
44350;PMS5003;62766;62.622;17.912;2022-08-19T00:29:20;3;3;
44350;PMS5003;62766;62.622;17.912;2022-08-19T00:31:49;3;3;
44350;PMS5003;62766;62.622;17.912;2022-08-19T00:34:18;3;3;
44350;PMS5003;62766;62.622;17.912;2022-08-19T00:36:47;5;4;
44350;PMS5003;62766;62.622;17.912;2022-08-19T00:39:16;3;3;
44350;PMS5003;62766;62.622;17.912;2022-08-19T00:41:46;4;4;
44350;PMS5003;62766;62.622;17.912;2022-08-19T00:44:18;4;4;
44350;PMS5003;62766;62.622;17.912;2022-08-19T00:46:50;4;3;
44350;PMS5003;62766;62.622;17.912;2022-08-19T00:49:23;7;7;
44350;PMS5003;62766;62.622;17.912;2022-08-19T00:51:55;8;8;
44350;PMS5003;62766;62.622;17.912;2022-08-19T00:54:28;3;3;
44350;PMS5003;62766;62.622;17.912;2022-08-19T00:56:58;2;2;
44350;PMS5003;62766;62.622;17.912;2022-08-19T00:59:28;5;5;
44350;PMS5003;62766;62.622;17.912;2022-08-19T01:01:58;9;5;
44350;PMS5003;62766;62.622;17.912;2022-08-19T01:04:26;4;4;
44350;PMS5003;62766;62.622;17.912;2022-08-19T01:06:54;3;3;
44350;PMS5003;62766;62.622;17.912;2022-08-19T01:09:24;3;2;
44350;PMS5003;62766;62.622;17.912;2022-08-19T01:11:54;5;3;
44350;PMS5003;62766;62.622;17.912;2022-08-19T01:14:23;5;5;
44350;PMS5003;62766;62.622;17.912;2022-08-19T01:16:53;4;4;
44350;PMS5003;62766;62.622;17.912;2022-08-19T01:19:24;4;4;
44350;PMS5003;62766;62.622;17.912;2022-08-19T01:21:58;5;5;
44350;PMS5003;62766;62.622;17.912;2022-08-19T01:24:32;5;5;
44350;PMS5003;62766;62.622;17.912;2022-08-19T01:27:02;4;4;
44350;PMS5003;62766;62.622;17.912;2022-08-19T01:29:32;4;4;
44350;PMS5003;62766;62.622;17.912;2022-08-19T01:32:00;7;6;
44350;PMS5003;62766;62.622;17.912;2022-08-19T01:34:28;4;4;
44350;PMS5003;62766;62.622;17.912;2022-08-19T01:36:58;5;4;
44350;PMS5003;62766;62.622;17.912;2022-08-19T01:39:26;5;5;
44350;PMS5003;62766;62.622;17.912;2022-08-19T01:41:56;6;6;
44350;PMS5003;62766;62.622;17.912;2022-08-19T01:44:24;6;4;
44350;PMS5003;62766;62.622;17.912;2022-08-19T01:46:52;5;5;
44350;PMS5003;62766;62.622;17.912;2022-08-19T01:49:21;5;5;
44350;PMS5003;62766;62.622;17.912;2022-08-19T01:51:52;6;4;
44350;PMS5003;62766;62.622;17.912;2022-08-19T01:54:22;2;2;
44350;PMS5003;62766;62.622;17.912;2022-08-19T01:56:52;5;3;
44350;PMS5003;62766;62.622;17.912;2022-08-19T01:59:25;3;3;
44350;PMS5003;62766;62.622;17.912;2022-08-19T02:01:53;4;3;
44350;PMS5003;62766;62.622;17.912;2022-08-19T02:04:21;4;4;
44350;PMS5003;62766;62.622;17.912;2022-08-19T02:06:49;4;4;
44350;PMS5003;62766;62.622;17.912;2022-08-19T02:09:17;8;4;
44350;PMS5003;62766;62.622;17.912;2022-08-19T02:11:45;4;4;
44350;PMS5003;62766;62.622;17.912;2022-08-19T02:14:13;5;3;
44350;PMS5003;62766;62.622;17.912;2022-08-19T02:16:42;6;5;
44350;PMS5003;62766;62.622;17.912;2022-08-19T02:19:10;3;3;
44350;PMS5003;62766;62.622;17.912;2022-08-19T02:21:38;5;5;
44350;PMS5003;62766;62.622;17.912;2022-08-19T02:24:06;4;4;
44350;PMS5003;62766;62.622;17.912;2022-08-19T02:26:34;6;4;
44350;PMS5003;62766;62.622;17.912;2022-08-19T02:29:02;3;3;
44350;PMS5003;62766;62.622;17.912;2022-08-19T02:31:32;4;3;
44350;PMS5003;62766;62.622;17.912;2022-08-19T02:34:00;5;5;
44350;PMS5003;62766;62.622;17.912;2022-08-19T02:36:29;6;6;
44350;PMS5003;62766;62.622;17.912;2022-08-19T02:38:58;6;5;
44350;PMS5003;62766;62.622;17.912;2022-08-19T02:41:28;6;6;
44350;PMS5003;62766;62.622;17.912;2022-08-19T02:44:01;7;7;
44350;PMS5003;62766;62.622;17.912;2022-08-19T02:46:31;8;8;
44350;PMS5003;62766;62.622;17.912;2022-08-19T02:49:01;7;7;
44350;PMS5003;62766;62.622;17.912;2022-08-19T02:51:32;9;9;
44350;PMS5003;62766;62.622;17.912;2022-08-19T02:54:02;6;6;
44350;PMS5003;62766;62.622;17.912;2022-08-19T02:56:33;8;8;
44350;PMS5003;62766;62.622;17.912;2022-08-19T02:59:04;6;6;
44350;PMS5003;62766;62.622;17.912;2022-08-19T03:01:34;9;9;
44350;PMS5003;62766;62.622;17.912;2022-08-19T03:04:03;5;5;
44350;PMS5003;62766;62.622;17.912;2022-08-19T03:06:35;8;8;
44350;PMS5003;62766;62.622;17.912;2022-08-19T03:09:05;6;6;
44350;PMS5003;62766;62.622;17.912;2022-08-19T03:11:35;7;7;
44350;PMS5003;62766;62.622;17.912;2022-08-19T03:14:05;7;6;
44350;PMS5003;62766;62.622;17.912;2022-08-19T03:16:35;10;10;
44350;PMS5003;62766;62.622;17.912;2022-08-19T03:19:11;13;9;
44350;PMS5003;62766;62.622;17.912;2022-08-19T03:21:42;10;9;
44350;PMS5003;62766;62.622;17.912;2022-08-19T03:24:13;7;7;
44350;PMS5003;62766;62.622;17.912;2022-08-19T03:26:43;7;7;
44350;PMS5003;62766;62.622;17.912;2022-08-19T03:29:14;10;10;
44350;PMS5003;62766;62.622;17.912;2022-08-19T03:31:44;11;10;
44350;PMS5003;62766;62.622;17.912;2022-08-19T03:34:15;8;8;
44350;PMS5003;62766;62.622;17.912;2022-08-19T03:36:47;10;10;
44350;PMS5003;62766;62.622;17.912;2022-08-19T03:39:16;9;7;
44350;PMS5003;62766;62.622;17.912;2022-08-19T03:41:46;7;7;
44350;PMS5003;62766;62.622;17.912;2022-08-19T03:44:17;10;9;
44350;PMS5003;62766;62.622;17.912;2022-08-19T03:46:47;10;10;
44350;PMS5003;62766;62.622;17.912;2022-08-19T03:49:17;8;8;
44350;PMS5003;62766;62.622;17.912;2022-08-19T03:51:46;11;8;
44350;PMS5003;62766;62.622;17.912;2022-08-19T03:54:18;15;13;
44350;PMS5003;62766;62.622;17.912;2022-08-19T03:56:49;8;8;
44350;PMS5003;62766;62.622;17.912;2022-08-19T03:59:22;9;9;
44350;PMS5003;62766;62.622;17.912;2022-08-19T04:03:21;11;11;
44350;PMS5003;62766;62.622;17.912;2022-08-19T04:05:50;11;9;
44350;PMS5003;62766;62.622;17.912;2022-08-19T04:08:18;9;9;
44350;PMS5003;62766;62.622;17.912;2022-08-19T04:10:47;9;9;
44350;PMS5003;62766;62.622;17.912;2022-08-19T04:13:16;12;12;
44350;PMS5003;62766;62.622;17.912;2022-08-19T04:15:45;14;14;
44350;PMS5003;62766;62.622;17.912;2022-08-19T04:18:14;11;11;
44350;PMS5003;62766;62.622;17.912;2022-08-19T04:20:43;10;10;
44350;PMS5003;62766;62.622;17.912;2022-08-19T04:23:13;13;11;
44350;PMS5003;62766;62.622;17.912;2022-08-19T04:25:43;12;12;
44350;PMS5003;62766;62.622;17.912;2022-08-19T04:28:12;11;11;
44350;PMS5003;62766;62.622;17.912;2022-08-19T04:30:42;12;10;
44350;PMS5003;62766;62.622;17.912;2022-08-19T04:33:12;14;11;
44350;PMS5003;62766;62.622;17.912;2022-08-19T04:35:43;10;10;
44350;PMS5003;62766;62.622;17.912;2022-08-19T04:38:16;11;9;
44350;PMS5003;62766;62.622;17.912;2022-08-19T04:40:48;11;11;
44350;PMS5003;62766;62.622;17.912;2022-08-19T04:43:18;13;11;
44350;PMS5003;62766;62.622;17.912;2022-08-19T04:45:48;11;11;
44350;PMS5003;62766;62.622;17.912;2022-08-19T04:48:16;15;14;
44350;PMS5003;62766;62.622;17.912;2022-08-19T04:50:45;11;10;
44350;PMS5003;62766;62.622;17.912;2022-08-19T04:53:13;13;11;
44350;PMS5003;62766;62.622;17.912;2022-08-19T04:55:42;12;9;
44350;PMS5003;62766;62.622;17.912;2022-08-19T04:58:10;12;12;
44350;PMS5003;62766;62.622;17.912;2022-08-19T05:00:39;10;9;
44350;PMS5003;62766;62.622;17.912;2022-08-19T05:03:08;15;15;
44350;PMS5003;62766;62.622;17.912;2022-08-19T05:05:38;13;11;
44350;PMS5003;62766;62.622;17.912;2022-08-19T05:08:09;14;14;
44350;PMS5003;62766;62.622;17.912;2022-08-19T05:10:37;10;9;
44350;PMS5003;62766;62.622;17.912;2022-08-19T05:13:07;10;10;
44350;PMS5003;62766;62.622;17.912;2022-08-19T05:15:36;12;11;
44350;PMS5003;62766;62.622;17.912;2022-08-19T05:18:04;14;11;
44350;PMS5003;62766;62.622;17.912;2022-08-19T05:20:32;10;10;
44350;PMS5003;62766;62.622;17.912;2022-08-19T05:23:00;11;10;
44350;PMS5003;62766;62.622;17.912;2022-08-19T05:25:28;12;12;
44350;PMS5003;62766;62.622;17.912;2022-08-19T05:27:56;13;12;
44350;PMS5003;62766;62.622;17.912;2022-08-19T05:30:24;9;8;
44350;PMS5003;62766;62.622;17.912;2022-08-19T05:32:52;11;10;
44350;PMS5003;62766;62.622;17.912;2022-08-19T05:35:22;18;17;
44350;PMS5003;62766;62.622;17.912;2022-08-19T05:37:50;9;9;
44350;PMS5003;62766;62.622;17.912;2022-08-19T05:40:19;16;14;
44350;PMS5003;62766;62.622;17.912;2022-08-19T05:42:49;12;12;
44350;PMS5003;62766;62.622;17.912;2022-08-19T05:45:19;16;13;
44350;PMS5003;62766;62.622;17.912;2022-08-19T05:47:49;17;16;
44350;PMS5003;62766;62.622;17.912;2022-08-19T05:50:17;14;14;
44350;PMS5003;62766;62.622;17.912;2022-08-19T05:52:46;16;16;
44350;PMS5003;62766;62.622;17.912;2022-08-19T05:55:15;15;15;
44350;PMS5003;62766;62.622;17.912;2022-08-19T05:57:43;15;15;
44350;PMS5003;62766;62.622;17.912;2022-08-19T06:00:12;14;10;
44350;PMS5003;62766;62.622;17.912;2022-08-19T06:02:41;15;14;
44350;PMS5003;62766;62.622;17.912;2022-08-19T06:05:10;18;17;
44350;PMS5003;62766;62.622;17.912;2022-08-19T06:07:39;17;15;
44350;PMS5003;62766;62.622;17.912;2022-08-19T06:10:10;12;12;
44350;PMS5003;62766;62.622;17.912;2022-08-19T06:12:40;21;17;
44350;PMS5003;62766;62.622;17.912;2022-08-19T06:15:09;14;14;
44350;PMS5003;62766;62.622;17.912;2022-08-19T06:17:40;16;15;
44350;PMS5003;62766;62.622;17.912;2022-08-19T06:20:10;12;12;
44350;PMS5003;62766;62.622;17.912;2022-08-19T06:22:41;16;14;
44350;PMS5003;62766;62.622;17.912;2022-08-19T06:25:11;20;19;
44350;PMS5003;62766;62.622;17.912;2022-08-19T06:27:41;18;16;
44350;PMS5003;62766;62.622;17.912;2022-08-19T06:30:09;15;15;
44350;PMS5003;62766;62.622;17.912;2022-08-19T06:32:39;15;15;
44350;PMS5003;62766;62.622;17.912;2022-08-19T06:35:07;19;17;
44350;PMS5003;62766;62.622;17.912;2022-08-19T06:37:37;15;14;
44350;PMS5003;62766;62.622;17.912;2022-08-19T06:40:07;21;15;
44350;PMS5003;62766;62.622;17.912;2022-08-19T06:42:35;17;17;
44350;PMS5003;62766;62.622;17.912;2022-08-19T06:45:04;20;17;
44350;PMS5003;62766;62.622;17.912;2022-08-19T06:47:34;24;23;
44350;PMS5003;62766;62.622;17.912;2022-08-19T06:50:03;15;15;
44350;PMS5003;62766;62.622;17.912;2022-08-19T06:52:33;22;20;
44350;PMS5003;62766;62.622;17.912;2022-08-19T06:55:04;13;13;
44350;PMS5003;62766;62.622;17.912;2022-08-19T06:57:33;17;15;
44350;PMS5003;62766;62.622;17.912;2022-08-19T07:00:02;18;16;
44350;PMS5003;62766;62.622;17.912;2022-08-19T07:02:31;18;18;
44350;PMS5003;62766;62.622;17.912;2022-08-19T07:05:00;18;16;
44350;PMS5003;62766;62.622;17.912;2022-08-19T07:07:28;21;19;
44350;PMS5003;62766;62.622;17.912;2022-08-19T07:09:57;15;14;
44350;PMS5003;62766;62.622;17.912;2022-08-19T07:12:26;17;15;
44350;PMS5003;62766;62.622;17.912;2022-08-19T07:14:55;23;23;
44350;PMS5003;62766;62.622;17.912;2022-08-19T07:17:23;19;19;
44350;PMS5003;62766;62.622;17.912;2022-08-19T07:19:52;26;23;
44350;PMS5003;62766;62.622;17.912;2022-08-19T07:22:21;17;15;
44350;PMS5003;62766;62.622;17.912;2022-08-19T07:24:50;18;15;
44350;PMS5003;62766;62.622;17.912;2022-08-19T07:27:20;21;21;
44350;PMS5003;62766;62.622;17.912;2022-08-19T07:29:50;14;14;
44350;PMS5003;62766;62.622;17.912;2022-08-19T07:32:19;20;20;
44350;PMS5003;62766;62.622;17.912;2022-08-19T07:34:49;20;16;
44350;PMS5003;62766;62.622;17.912;2022-08-19T07:37:19;16;16;
44350;PMS5003;62766;62.622;17.912;2022-08-19T07:39:49;19;17;
44350;PMS5003;62766;62.622;17.912;2022-08-19T07:42:18;22;21;
44350;PMS5003;62766;62.622;17.912;2022-08-19T07:44:47;16;15;
44350;PMS5003;62766;62.622;17.912;2022-08-19T07:47:16;18;18;
44350;PMS5003;62766;62.622;17.912;2022-08-19T07:49:45;13;13;
44350;PMS5003;62766;62.622;17.912;2022-08-19T07:52:14;19;19;
44350;PMS5003;62766;62.622;17.912;2022-08-19T07:54:43;22;19;
44350;PMS5003;62766;62.622;17.912;2022-08-19T07:57:12;16;15;
44350;PMS5003;62766;62.622;17.912;2022-08-19T07:59:40;17;16;
44350;PMS5003;62766;62.622;17.912;2022-08-19T08:02:09;14;14;
44350;PMS5003;62766;62.622;17.912;2022-08-19T08:04:38;18;18;
44350;PMS5003;62766;62.622;17.912;2022-08-19T08:07:08;16;14;
44350;PMS5003;62766;62.622;17.912;2022-08-19T08:09:37;17;17;
44350;PMS5003;62766;62.622;17.912;2022-08-19T08:12:09;15;14;
44350;PMS5003;62766;62.622;17.912;2022-08-19T08:14:41;16;16;
44350;PMS5003;62766;62.622;17.912;2022-08-19T08:17:12;20;18;
44350;PMS5003;62766;62.622;17.912;2022-08-19T08:19:43;19;19;
44350;PMS5003;62766;62.622;17.912;2022-08-19T08:22:14;14;14;
44350;PMS5003;62766;62.622;17.912;2022-08-19T08:24:46;19;16;
44350;PMS5003;62766;62.622;17.912;2022-08-19T08:27:15;17;17;
44350;PMS5003;62766;62.622;17.912;2022-08-19T08:29:43;17;16;
44350;PMS5003;62766;62.622;17.912;2022-08-19T08:32:12;16;14;
44350;PMS5003;62766;62.622;17.912;2022-08-19T08:34:40;15;13;
44350;PMS5003;62766;62.622;17.912;2022-08-19T08:37:08;17;17;
44350;PMS5003;62766;62.622;17.912;2022-08-19T08:39:36;16;15;
44350;PMS5003;62766;62.622;17.912;2022-08-19T08:42:07;17;15;
44350;PMS5003;62766;62.622;17.912;2022-08-19T08:44:43;16;14;
44350;PMS5003;62766;62.622;17.912;2022-08-19T08:47:20;13;13;
44350;PMS5003;62766;62.622;17.912;2022-08-19T08:49:50;16;16;
44350;PMS5003;62766;62.622;17.912;2022-08-19T08:52:24;20;17;
44350;PMS5003;62766;62.622;17.912;2022-08-19T08:54:55;21;20;
44350;PMS5003;62766;62.622;17.912;2022-08-19T08:57:27;14;14;
44350;PMS5003;62766;62.622;17.912;2022-08-19T09:00:02;13;13;
44350;PMS5003;62766;62.622;17.912;2022-08-19T09:02:35;17;16;
44350;PMS5003;62766;62.622;17.912;2022-08-19T09:05:05;21;21;
44350;PMS5003;62766;62.622;17.912;2022-08-19T09:07:38;17;16;
44350;PMS5003;62766;62.622;17.912;2022-08-19T09:10:14;25;23;
44350;PMS5003;62766;62.622;17.912;2022-08-19T09:12:50;17;16;
44350;PMS5003;62766;62.622;17.912;2022-08-19T09:15:28;28;27;
44350;PMS5003;62766;62.622;17.912;2022-08-19T09:18:01;26;26;
44350;PMS5003;62766;62.622;17.912;2022-08-19T09:20:32;27;23;
44350;PMS5003;62766;62.622;17.912;2022-08-19T09:23:00;28;25;
44350;PMS5003;62766;62.622;17.912;2022-08-19T09:25:29;24;23;
44350;PMS5003;62766;62.622;17.912;2022-08-19T09:27:58;25;23;
44350;PMS5003;62766;62.622;17.912;2022-08-19T09:30:27;27;27;
44350;PMS5003;62766;62.622;17.912;2022-08-19T09:32:59;25;25;
44350;PMS5003;62766;62.622;17.912;2022-08-19T09:35:28;26;24;
44350;PMS5003;62766;62.622;17.912;2022-08-19T09:37:58;19;19;
44350;PMS5003;62766;62.622;17.912;2022-08-19T09:40:29;20;18;
44350;PMS5003;62766;62.622;17.912;2022-08-19T09:42:59;25;23;
44350;PMS5003;62766;62.622;17.912;2022-08-19T09:45:28;23;21;
44350;PMS5003;62766;62.622;17.912;2022-08-19T09:47:57;17;17;
44350;PMS5003;62766;62.622;17.912;2022-08-19T09:50:26;18;18;
44350;PMS5003;62766;62.622;17.912;2022-08-19T09:52:54;23;23;
44350;PMS5003;62766;62.622;17.912;2022-08-19T09:55:24;23;20;
44350;PMS5003;62766;62.622;17.912;2022-08-19T09:57:53;22;22;
44350;PMS5003;62766;62.622;17.912;2022-08-19T10:03:25;19;19;
44350;PMS5003;62766;62.622;17.912;2022-08-19T10:05:56;23;22;
44350;PMS5003;62766;62.622;17.912;2022-08-19T10:08:27;22;21;
44350;PMS5003;62766;62.622;17.912;2022-08-19T10:10:58;19;18;
44350;PMS5003;62766;62.622;17.912;2022-08-19T10:13:28;26;21;
44350;PMS5003;62766;62.622;17.912;2022-08-19T10:16:02;20;20;
44350;PMS5003;62766;62.622;17.912;2022-08-19T10:18:33;23;23;
44350;PMS5003;62766;62.622;17.912;2022-08-19T10:21:05;19;18;
44350;PMS5003;62766;62.622;17.912;2022-08-19T10:23:38;17;17;
44350;PMS5003;62766;62.622;17.912;2022-08-19T10:26:08;20;20;
44350;PMS5003;62766;62.622;17.912;2022-08-19T10:28:38;23;23;
44350;PMS5003;62766;62.622;17.912;2022-08-19T10:31:07;23;23;
44350;PMS5003;62766;62.622;17.912;2022-08-19T10:33:38;20;18;
44350;PMS5003;62766;62.622;17.912;2022-08-19T10:36:08;15;15;
44350;PMS5003;62766;62.622;17.912;2022-08-19T10:38:39;16;16;
44350;PMS5003;62766;62.622;17.912;2022-08-19T10:41:07;18;18;
44350;PMS5003;62766;62.622;17.912;2022-08-19T10:43:37;16;16;
44350;PMS5003;62766;62.622;17.912;2022-08-19T10:46:06;19;18;
44350;PMS5003;62766;62.622;17.912;2022-08-19T10:48:36;17;17;
44350;PMS5003;62766;62.622;17.912;2022-08-19T10:51:05;16;16;
44350;PMS5003;62766;62.622;17.912;2022-08-19T10:53:33;16;16;
44350;PMS5003;62766;62.622;17.912;2022-08-19T10:56:02;15;15;
44350;PMS5003;62766;62.622;17.912;2022-08-19T10:58:32;15;15;
44350;PMS5003;62766;62.622;17.912;2022-08-19T11:01:01;12;12;
44350;PMS5003;62766;62.622;17.912;2022-08-19T11:03:30;14;12;
44350;PMS5003;62766;62.622;17.912;2022-08-19T11:06:00;10;10;
44350;PMS5003;62766;62.622;17.912;2022-08-19T11:08:29;13;13;
44350;PMS5003;62766;62.622;17.912;2022-08-19T11:11:00;13;13;
44350;PMS5003;62766;62.622;17.912;2022-08-19T11:13:30;11;11;
44350;PMS5003;62766;62.622;17.912;2022-08-19T11:16:02;15;15;
44350;PMS5003;62766;62.622;17.912;2022-08-19T11:18:34;12;12;
44350;PMS5003;62766;62.622;17.912;2022-08-19T11:21:05;14;14;
44350;PMS5003;62766;62.622;17.912;2022-08-19T11:23:40;15;14;
44350;PMS5003;62766;62.622;17.912;2022-08-19T11:26:09;14;14;
44350;PMS5003;62766;62.622;17.912;2022-08-19T11:28:38;14;14;
44350;PMS5003;62766;62.622;17.912;2022-08-19T11:31:09;18;18;
44350;PMS5003;62766;62.622;17.912;2022-08-19T11:33:39;19;17;
44350;PMS5003;62766;62.622;17.912;2022-08-19T11:36:08;16;16;
44350;PMS5003;62766;62.622;17.912;2022-08-19T11:38:37;20;19;
44350;PMS5003;62766;62.622;17.912;2022-08-19T11:41:06;16;16;
44350;PMS5003;62766;62.622;17.912;2022-08-19T11:43:36;12;11;
44350;PMS5003;62766;62.622;17.912;2022-08-19T11:46:06;22;20;
44350;PMS5003;62766;62.622;17.912;2022-08-19T11:48:35;17;16;
44350;PMS5003;62766;62.622;17.912;2022-08-19T11:51:04;20;20;
44350;PMS5003;62766;62.622;17.912;2022-08-19T11:53:34;17;16;
44350;PMS5003;62766;62.622;17.912;2022-08-19T11:56:04;13;12;
44350;PMS5003;62766;62.622;17.912;2022-08-19T11:58:35;14;14;
44350;PMS5003;62766;62.622;17.912;2022-08-19T12:01:05;16;14;
44350;PMS5003;62766;62.622;17.912;2022-08-19T12:03:35;24;20;
44350;PMS5003;62766;62.622;17.912;2022-08-19T12:06:05;20;19;
44350;PMS5003;62766;62.622;17.912;2022-08-19T12:08:35;18;14;
44350;PMS5003;62766;62.622;17.912;2022-08-19T12:11:04;16;14;
44350;PMS5003;62766;62.622;17.912;2022-08-19T12:13:34;17;15;
44350;PMS5003;62766;62.622;17.912;2022-08-19T12:16:07;20;18;
44350;PMS5003;62766;62.622;17.912;2022-08-19T12:18:37;15;15;
44350;PMS5003;62766;62.622;17.912;2022-08-19T12:21:06;17;15;
44350;PMS5003;62766;62.622;17.912;2022-08-19T12:23:36;13;13;
44350;PMS5003;62766;62.622;17.912;2022-08-19T12:26:04;11;11;
44350;PMS5003;62766;62.622;17.912;2022-08-19T12:28:33;19;18;
44350;PMS5003;62766;62.622;17.912;2022-08-19T12:31:03;18;18;
44350;PMS5003;62766;62.622;17.912;2022-08-19T12:33:32;15;15;
44350;PMS5003;62766;62.622;17.912;2022-08-19T12:36:03;14;14;
44350;PMS5003;62766;62.622;17.912;2022-08-19T12:38:34;12;12;
44350;PMS5003;62766;62.622;17.912;2022-08-19T12:41:04;17;13;
44350;PMS5003;62766;62.622;17.912;2022-08-19T12:43:34;16;14;
44350;PMS5003;62766;62.622;17.912;2022-08-19T12:46:05;15;14;
44350;PMS5003;62766;62.622;17.912;2022-08-19T12:48:34;13;12;
44350;PMS5003;62766;62.622;17.912;2022-08-19T12:51:05;13;12;
44350;PMS5003;62766;62.622;17.912;2022-08-19T12:53:35;16;16;
44350;PMS5003;62766;62.622;17.912;2022-08-19T12:56:04;21;18;
44350;PMS5003;62766;62.622;17.912;2022-08-19T12:58:33;17;13;
44350;PMS5003;62766;62.622;17.912;2022-08-19T13:01:05;20;15;
44350;PMS5003;62766;62.622;17.912;2022-08-19T13:03:36;22;19;
44350;PMS5003;62766;62.622;17.912;2022-08-19T13:06:06;16;15;
44350;PMS5003;62766;62.622;17.912;2022-08-19T13:08:35;18;15;
44350;PMS5003;62766;62.622;17.912;2022-08-19T13:11:06;19;19;
44350;PMS5003;62766;62.622;17.912;2022-08-19T13:13:36;16;16;
44350;PMS5003;62766;62.622;17.912;2022-08-19T13:16:06;24;21;
44350;PMS5003;62766;62.622;17.912;2022-08-19T13:18:36;16;16;
44350;PMS5003;62766;62.622;17.912;2022-08-19T13:21:06;20;16;
44350;PMS5003;62766;62.622;17.912;2022-08-19T13:23:37;20;17;
44350;PMS5003;62766;62.622;17.912;2022-08-19T13:26:06;17;17;
44350;PMS5003;62766;62.622;17.912;2022-08-19T13:28:36;16;16;
44350;PMS5003;62766;62.622;17.912;2022-08-19T13:31:06;16;16;
44350;PMS5003;62766;62.622;17.912;2022-08-19T13:33:34;21;19;
44350;PMS5003;62766;62.622;17.912;2022-08-19T13:36:03;21;19;
44350;PMS5003;62766;62.622;17.912;2022-08-19T13:38:32;20;17;
44350;PMS5003;62766;62.622;17.912;2022-08-19T13:41:04;19;18;
44350;PMS5003;62766;62.622;17.912;2022-08-19T13:43:33;18;18;
44350;PMS5003;62766;62.622;17.912;2022-08-19T13:46:07;15;15;
44350;PMS5003;62766;62.622;17.912;2022-08-19T13:48:37;21;19;
44350;PMS5003;62766;62.622;17.912;2022-08-19T13:51:05;23;21;
44350;PMS5003;62766;62.622;17.912;2022-08-19T13:53:35;18;17;
44350;PMS5003;62766;62.622;17.912;2022-08-19T13:56:04;15;15;
44350;PMS5003;62766;62.622;17.912;2022-08-19T13:58:33;20;20;
44350;PMS5003;62766;62.622;17.912;2022-08-19T14:01:03;15;15;
44350;PMS5003;62766;62.622;17.912;2022-08-19T14:03:34;19;18;
44350;PMS5003;62766;62.622;17.912;2022-08-19T14:06:04;21;21;
44350;PMS5003;62766;62.622;17.912;2022-08-19T14:08:33;20;19;
44350;PMS5003;62766;62.622;17.912;2022-08-19T14:11:02;21;20;
44350;PMS5003;62766;62.622;17.912;2022-08-19T14:13:31;21;18;
44350;PMS5003;62766;62.622;17.912;2022-08-19T14:16:00;17;17;
44350;PMS5003;62766;62.622;17.912;2022-08-19T14:18:29;19;18;
44350;PMS5003;62766;62.622;17.912;2022-08-19T14:20:58;23;21;
44350;PMS5003;62766;62.622;17.912;2022-08-19T14:23:27;20;18;
44350;PMS5003;62766;62.622;17.912;2022-08-19T14:26:02;23;21;
44350;PMS5003;62766;62.622;17.912;2022-08-19T14:28:32;19;19;
44350;PMS5003;62766;62.622;17.912;2022-08-19T14:31:02;25;25;
44350;PMS5003;62766;62.622;17.912;2022-08-19T14:33:31;23;22;
44350;PMS5003;62766;62.622;17.912;2022-08-19T14:35:59;30;27;
44350;PMS5003;62766;62.622;17.912;2022-08-19T14:38:28;19;18;
44350;PMS5003;62766;62.622;17.912;2022-08-19T14:41:05;22;21;
44350;PMS5003;62766;62.622;17.912;2022-08-19T14:43:35;21;21;
44350;PMS5003;62766;62.622;17.912;2022-08-19T14:46:03;22;19;
44350;PMS5003;62766;62.622;17.912;2022-08-19T14:48:33;32;29;
44350;PMS5003;62766;62.622;17.912;2022-08-19T14:51:02;27;23;
44350;PMS5003;62766;62.622;17.912;2022-08-19T14:53:32;25;24;
44350;PMS5003;62766;62.622;17.912;2022-08-19T14:56:07;30;21;
44350;PMS5003;62766;62.622;17.912;2022-08-19T14:58:37;24;23;
44350;PMS5003;62766;62.622;17.912;2022-08-19T15:01:07;22;20;
44350;PMS5003;62766;62.622;17.912;2022-08-19T15:03:36;23;22;
44350;PMS5003;62766;62.622;17.912;2022-08-19T15:06:05;24;23;
44350;PMS5003;62766;62.622;17.912;2022-08-19T15:08:35;26;24;
44350;PMS5003;62766;62.622;17.912;2022-08-19T15:11:07;26;24;
44350;PMS5003;62766;62.622;17.912;2022-08-19T15:13:36;28;27;
44350;PMS5003;62766;62.622;17.912;2022-08-19T15:16:07;25;23;
44350;PMS5003;62766;62.622;17.912;2022-08-19T15:18:36;25;24;
44350;PMS5003;62766;62.622;17.912;2022-08-19T15:21:05;27;23;
44350;PMS5003;62766;62.622;17.912;2022-08-19T15:23:33;31;29;
44350;PMS5003;62766;62.622;17.912;2022-08-19T15:26:01;27;24;
44350;PMS5003;62766;62.622;17.912;2022-08-19T15:28:30;31;31;
44350;PMS5003;62766;62.622;17.912;2022-08-19T15:30:59;44;44;
44350;PMS5003;62766;62.622;17.912;2022-08-19T15:33:30;33;31;
44350;PMS5003;62766;62.622;17.912;2022-08-19T15:36:00;25;23;
44350;PMS5003;62766;62.622;17.912;2022-08-19T15:38:29;25;21;
44350;PMS5003;62766;62.622;17.912;2022-08-19T15:40:59;27;27;
44350;PMS5003;62766;62.622;17.912;2022-08-19T15:43:28;28;26;
44350;PMS5003;62766;62.622;17.912;2022-08-19T15:45:57;24;24;
44350;PMS5003;62766;62.622;17.912;2022-08-19T15:48:25;24;24;
44350;PMS5003;62766;62.622;17.912;2022-08-19T15:50:54;20;20;
44350;PMS5003;62766;62.622;17.912;2022-08-19T15:53:23;20;20;
44350;PMS5003;62766;62.622;17.912;2022-08-19T15:55:52;27;27;
44350;PMS5003;62766;62.622;17.912;2022-08-19T15:58:21;19;19;
44350;PMS5003;62766;62.622;17.912;2022-08-19T16:03:19;20;19;
44350;PMS5003;62766;62.622;17.912;2022-08-19T16:05:49;25;25;
44350;PMS5003;62766;62.622;17.912;2022-08-19T16:08:17;19;19;
44350;PMS5003;62766;62.622;17.912;2022-08-19T16:10:46;19;19;
44350;PMS5003;62766;62.622;17.912;2022-08-19T16:13:14;22;20;
44350;PMS5003;62766;62.622;17.912;2022-08-19T16:15:42;17;17;
44350;PMS5003;62766;62.622;17.912;2022-08-19T16:18:11;19;19;
44350;PMS5003;62766;62.622;17.912;2022-08-19T16:20:39;28;26;
44350;PMS5003;62766;62.622;17.912;2022-08-19T16:23:08;31;28;
44350;PMS5003;62766;62.622;17.912;2022-08-19T16:25:37;25;24;
44350;PMS5003;62766;62.622;17.912;2022-08-19T16:28:05;23;23;
44350;PMS5003;62766;62.622;17.912;2022-08-19T16:30:35;23;23;
44350;PMS5003;62766;62.622;17.912;2022-08-19T16:33:05;23;23;